createdAt,value
2022-11-22T00:00:40.337Z,27672.53
2022-11-22T00:01:40.446Z,27672.53
2022-11-22T00:02:40.359Z,27672.53
2022-11-22T00:03:40.918Z,27672.53
2022-11-22T00:04:40.318Z,27672.53
2022-11-22T00:05:40.922Z,27672.53
2022-11-22T00:06:40.449Z,27672.53
2022-11-22T00:07:40.451Z,27672.53
2022-11-22T00:08:40.333Z,27672.53
2022-11-22T00:09:40.244Z,27672.53
2022-11-22T00:10:40.244Z,27672.53
2022-11-22T00:11:40.222Z,27672.53
2022-11-22T00:12:40.237Z,27672.53
2022-11-22T00:13:40.212Z,27672.53
2022-11-22T00:14:40.291Z,27672.53
2022-11-22T00:15:40.199Z,27672.53
2022-11-22T00:16:40.214Z,27672.53
2022-11-22T00:17:40.829Z,27672.53
2022-11-22T00:18:40.371Z,27672.53
2022-11-22T00:19:40.154Z,27672.53
2022-11-22T00:20:40.148Z,27672.53
2022-11-22T00:21:40.143Z,27672.53
2022-11-22T00:22:44.486Z,27672.53
2022-11-22T00:23:40.159Z,27672.53
2022-11-22T00:24:40.105Z,27672.53
2022-11-22T00:25:40.093Z,27672.53
2022-11-22T00:26:40.075Z,27672.53
2022-11-22T00:27:40.108Z,27672.53
2022-11-22T00:28:40.070Z,27672.53
2022-11-22T00:29:40.119Z,27672.53
2022-11-22T00:30:40.050Z,27672.53
2022-11-22T00:31:40.025Z,27672.53
2022-11-22T00:32:40.047Z,27672.53
2022-11-22T00:33:40.009Z,27672.53
2022-11-22T00:34:40.016Z,27672.53
2022-11-22T00:35:39.994Z,27672.53
2022-11-22T00:36:39.974Z,27672.53
2022-11-22T00:37:39.986Z,27672.53
2022-11-22T00:38:39.963Z,27672.53
2022-11-22T00:39:46.476Z,27672.53
2022-11-22T00:40:39.952Z,27672.53
2022-11-22T00:41:46.474Z,27672.53
2022-11-22T00:42:47.477Z,27672.53
2022-11-22T00:43:46.418Z,27672.53
2022-11-22T00:44:46.407Z,27672.53
2022-11-22T00:45:46.391Z,27672.53
2022-11-22T00:46:46.711Z,27672.53
2022-11-22T00:47:39.892Z,27672.53
2022-11-22T00:48:39.868Z,27672.53
2022-11-22T00:49:39.870Z,27672.53
2022-11-22T00:50:39.877Z,27672.53
2022-11-22T00:51:39.821Z,27672.53
2022-11-22T00:52:39.863Z,27672.53
2022-11-22T00:53:39.830Z,27672.53
2022-11-22T00:54:39.800Z,27672.53
2022-11-22T00:55:39.789Z,27672.53
2022-11-22T00:56:39.777Z,27672.53
2022-11-22T00:57:39.788Z,27672.53
2022-11-22T00:58:39.785Z,27672.53
2022-11-22T00:59:39.759Z,27672.53
2022-11-22T01:00:39.819Z,27672.53
2022-11-22T01:01:39.790Z,27672.53
2022-11-22T01:02:39.750Z,27672.53
2022-11-22T01:03:39.707Z,27672.53
2022-11-22T01:04:39.719Z,27672.53
2022-11-22T01:05:39.685Z,27672.53
2022-11-22T01:06:39.678Z,27672.53
2022-11-22T01:07:39.800Z,27672.53
2022-11-22T01:08:39.731Z,27672.53
2022-11-22T01:09:39.684Z,27672.53
2022-11-22T01:10:39.645Z,27672.53
2022-11-22T01:11:39.657Z,27672.53
2022-11-22T01:12:39.612Z,27672.53
2022-11-22T01:13:39.635Z,27672.53
2022-11-22T01:14:39.610Z,27672.53
2022-11-22T01:15:39.583Z,27672.53
2022-11-22T01:16:39.589Z,27672.53
2022-11-22T01:17:39.565Z,27672.53
2022-11-22T01:18:39.608Z,27672.53
2022-11-22T01:19:39.551Z,27672.53
2022-11-22T01:20:39.527Z,27672.53
2022-11-22T01:21:39.572Z,27672.53
2022-11-22T01:22:39.534Z,27672.53
2022-11-22T01:23:39.520Z,27672.53
2022-11-22T01:24:39.492Z,27672.53
2022-11-22T01:25:39.506Z,27672.53
2022-11-22T01:26:39.510Z,27672.53
2022-11-22T01:27:39.468Z,27672.53
2022-11-22T01:28:39.468Z,27672.53
2022-11-22T01:29:39.461Z,27672.53
2022-11-22T01:30:45.944Z,27672.53
2022-11-22T01:31:39.440Z,27672.53
2022-11-22T01:32:39.432Z,27672.53
2022-11-22T01:33:39.426Z,27672.53
2022-11-22T01:34:39.393Z,27672.53
2022-11-22T01:35:39.390Z,27672.53
2022-11-22T01:36:39.382Z,27672.53
2022-11-22T01:37:39.361Z,27672.53
2022-11-22T01:38:39.380Z,27672.53
2022-11-22T01:39:39.353Z,27672.53
2022-11-22T01:40:39.339Z,27672.53
2022-11-22T01:41:39.340Z,27672.53
2022-11-22T01:42:39.338Z,27672.53
2022-11-22T01:43:39.338Z,27672.53
2022-11-22T01:44:39.297Z,27672.53
2022-11-22T01:45:39.295Z,27672.53
2022-11-22T01:46:39.268Z,27672.53
2022-11-22T01:47:39.274Z,27672.53
2022-11-22T01:48:39.277Z,27672.53
2022-11-22T01:49:39.251Z,27672.53
2022-11-22T01:50:39.292Z,27672.53
2022-11-22T01:51:39.221Z,27672.53
2022-11-22T01:52:39.215Z,27672.53
2022-11-22T01:53:39.248Z,27672.53
2022-11-22T01:54:39.220Z,27672.53
2022-11-22T01:55:39.186Z,27672.53
2022-11-22T01:56:39.195Z,27672.53
2022-11-22T01:57:39.168Z,27672.53
2022-11-22T01:58:39.210Z,27672.53
2022-11-22T01:59:39.150Z,27672.53
2022-11-22T02:00:39.187Z,27672.53
2022-11-22T02:01:39.218Z,27672.53
2022-11-22T02:02:39.112Z,27672.53
2022-11-22T02:03:39.151Z,27672.53
2022-11-22T02:04:39.097Z,27672.53
2022-11-22T02:05:39.086Z,27672.53
2022-11-22T02:06:39.113Z,27672.53
2022-11-22T02:07:45.715Z,27672.53
2022-11-22T02:08:39.093Z,27672.53
2022-11-22T02:09:39.041Z,27672.53
2022-11-22T02:10:39.029Z,27672.53
2022-11-22T02:11:39.045Z,27672.53
2022-11-22T02:12:39.025Z,27672.53
2022-11-22T02:13:39.023Z,27672.53
2022-11-22T02:14:39.030Z,27672.53
2022-11-22T02:15:39.010Z,27672.53
2022-11-22T02:16:38.968Z,27672.53
2022-11-22T02:17:38.966Z,27672.53
2022-11-22T02:18:38.948Z,27672.53
2022-11-22T02:19:38.989Z,27672.53
2022-11-22T02:20:38.931Z,27672.53
2022-11-22T02:21:38.970Z,27672.53
2022-11-22T02:22:38.928Z,27672.53
2022-11-22T02:23:38.899Z,27672.53
2022-11-22T02:24:38.912Z,27672.53
2022-11-22T02:25:38.924Z,27672.53
2022-11-22T02:26:38.862Z,27672.53
2022-11-22T02:27:38.866Z,27672.53
2022-11-22T02:28:38.846Z,27672.53
2022-11-22T02:29:38.889Z,27672.53
2022-11-22T02:30:38.846Z,27672.53
2022-11-22T02:31:38.824Z,27672.53
2022-11-22T02:32:38.834Z,27672.53
2022-11-22T02:33:38.805Z,27672.53
2022-11-22T02:34:38.814Z,27672.53
2022-11-22T02:35:38.811Z,27672.53
2022-11-22T02:36:38.774Z,27672.53
2022-11-22T02:37:38.767Z,27672.53
2022-11-22T02:38:38.752Z,27672.53
2022-11-22T02:39:38.789Z,27672.53
2022-11-22T02:40:38.743Z,27672.53
2022-11-22T02:41:38.745Z,27672.53
2022-11-22T02:42:38.719Z,27672.53
2022-11-22T02:43:38.730Z,27672.53
2022-11-22T02:44:38.711Z,27672.53
2022-11-22T02:45:38.691Z,27672.53
2022-11-22T02:46:38.676Z,27672.53
2022-11-22T02:47:38.681Z,27672.53
2022-11-22T02:48:38.662Z,27672.53
2022-11-22T02:49:38.668Z,27672.53
2022-11-22T02:50:38.650Z,27672.53
2022-11-22T02:51:38.630Z,27672.53
2022-11-22T02:52:38.615Z,27672.53
2022-11-22T02:53:38.609Z,27672.53
2022-11-22T02:54:38.615Z,27672.53
2022-11-22T02:55:38.584Z,27672.53
2022-11-22T02:56:38.566Z,27672.53
2022-11-22T02:57:38.576Z,27672.53
2022-11-22T02:58:38.581Z,27672.53
2022-11-22T02:59:38.617Z,27672.53
2022-11-22T03:00:38.576Z,27672.53
2022-11-22T03:01:38.573Z,27672.53
2022-11-22T03:02:38.511Z,27672.53
2022-11-22T03:03:38.531Z,27672.53
2022-11-22T03:04:38.516Z,27672.53
2022-11-22T03:05:38.482Z,27672.53
2022-11-22T03:06:38.496Z,27672.53
2022-11-22T03:07:38.517Z,27672.53
2022-11-22T03:08:38.446Z,27672.53
2022-11-22T03:09:38.536Z,27672.53
2022-11-22T03:10:38.438Z,27672.53
2022-11-22T03:11:38.474Z,27672.53
2022-11-22T03:12:38.454Z,27672.53
2022-11-22T03:13:38.407Z,27672.53
2022-11-22T03:14:38.424Z,27672.53
2022-11-22T03:15:38.381Z,27672.53
2022-11-22T03:16:38.378Z,27672.53
2022-11-22T03:17:38.379Z,27672.53
2022-11-22T03:18:38.366Z,27672.53
2022-11-22T03:19:38.402Z,27672.53
2022-11-22T03:20:38.376Z,980.43
2022-11-22T03:21:38.381Z,980.44
2022-11-22T03:22:38.389Z,980.42
2022-11-22T03:23:38.374Z,980.41
2022-11-22T03:24:38.365Z,980.40
2022-11-22T03:25:38.360Z,980.40
2022-11-22T03:26:38.340Z,980.42
2022-11-22T03:27:38.341Z,980.41
2022-11-22T03:28:38.308Z,980.40
2022-11-22T03:29:38.489Z,980.39
2022-11-22T03:30:38.379Z,980.40
2022-11-22T03:31:38.299Z,980.40
2022-11-22T03:32:38.308Z,980.40
2022-11-22T03:33:38.397Z,980.42
2022-11-22T03:34:38.254Z,980.45
2022-11-22T03:35:38.282Z,980.47
2022-11-22T03:36:38.369Z,980.46
2022-11-22T03:37:38.224Z,980.45
2022-11-22T03:38:38.246Z,980.43
2022-11-22T03:39:38.208Z,980.43
2022-11-22T03:40:38.224Z,980.45
2022-11-22T03:41:38.174Z,980.45
2022-11-22T03:42:38.170Z,980.47
2022-11-22T03:43:38.193Z,980.52
2022-11-22T03:44:38.161Z,980.55
2022-11-22T03:45:38.170Z,980.57
2022-11-22T03:46:38.134Z,980.57
2022-11-22T03:47:38.129Z,980.57
2022-11-22T03:48:38.117Z,980.57
2022-11-22T03:49:38.097Z,980.56
2022-11-22T03:50:38.123Z,980.57
2022-11-22T03:51:38.093Z,980.56
2022-11-22T03:52:44.610Z,980.54
2022-11-22T03:53:44.568Z,980.57
2022-11-22T03:54:44.572Z,980.57
2022-11-22T03:55:45.621Z,980.59
2022-11-22T03:56:38.042Z,980.60
2022-11-22T03:57:38.022Z,980.60
2022-11-22T03:58:38.010Z,980.63
2022-11-22T03:59:38.004Z,980.64
2022-11-22T04:00:38.013Z,980.63
2022-11-22T04:01:38.021Z,980.59
2022-11-22T04:02:37.976Z,980.58
2022-11-22T04:03:37.980Z,980.60
2022-11-22T04:04:37.966Z,980.60
2022-11-22T04:05:37.966Z,980.59
2022-11-22T04:06:37.941Z,980.60
2022-11-22T04:07:38.088Z,980.62
2022-11-22T04:08:37.993Z,980.64
2022-11-22T04:09:37.930Z,980.67
2022-11-22T04:10:37.923Z,980.66
2022-11-22T04:11:37.892Z,980.64
2022-11-22T04:12:37.879Z,980.62
2022-11-22T04:13:37.864Z,980.65
2022-11-22T04:14:37.853Z,980.66
2022-11-22T04:15:37.879Z,980.67
2022-11-22T04:16:37.857Z,980.72
2022-11-22T04:17:37.829Z,980.74
2022-11-22T04:18:37.824Z,980.76
2022-11-22T04:19:37.800Z,980.79
2022-11-22T04:20:45.641Z,980.79
2022-11-22T04:21:45.383Z,980.78
2022-11-22T04:22:44.281Z,980.77
2022-11-22T04:23:44.260Z,980.78
2022-11-22T04:24:44.255Z,980.80
2022-11-22T04:25:37.803Z,980.81
2022-11-22T04:26:37.755Z,980.83
2022-11-22T04:27:37.730Z,980.83
2022-11-22T04:29:37.712Z,980.81
2022-11-22T04:30:37.703Z,980.80
2022-11-22T04:31:37.700Z,980.80
2022-11-22T04:32:37.683Z,980.81
2022-11-22T04:33:37.668Z,980.84
2022-11-22T04:34:37.653Z,980.84
2022-11-22T04:35:37.636Z,980.85
2022-11-22T04:36:37.652Z,980.84
2022-11-22T04:37:37.633Z,980.81
2022-11-22T04:38:37.616Z,980.81
2022-11-22T04:39:37.601Z,980.82
2022-11-22T04:40:37.595Z,980.80
2022-11-22T04:41:37.602Z,980.81
2022-11-22T04:42:37.579Z,980.83
2022-11-22T04:43:37.636Z,980.84
2022-11-22T04:44:37.567Z,980.84
2022-11-22T04:45:44.165Z,980.83
2022-11-22T04:46:37.557Z,980.80
2022-11-22T04:47:37.528Z,980.84
2022-11-22T04:48:37.518Z,980.84
2022-11-22T04:49:37.520Z,980.84
2022-11-22T04:50:37.523Z,980.84
2022-11-22T04:51:37.503Z,980.82
2022-11-22T04:52:37.483Z,980.84
2022-11-22T04:53:37.468Z,980.86
2022-11-22T04:54:37.450Z,980.90
2022-11-22T04:55:37.433Z,980.92
2022-11-22T04:56:37.464Z,980.95
2022-11-22T04:57:37.422Z,980.93
2022-11-22T04:58:37.424Z,980.92
2022-11-22T04:59:37.400Z,980.91
2022-11-22T05:00:37.474Z,980.91
2022-11-22T05:01:37.478Z,980.94
2022-11-22T05:02:37.369Z,980.94
2022-11-22T05:03:37.354Z,980.96
2022-11-22T05:04:37.353Z,980.96
2022-11-22T05:05:37.351Z,980.96
2022-11-22T05:06:37.358Z,980.94
2022-11-22T05:07:37.397Z,980.92
2022-11-22T05:08:37.344Z,980.94
2022-11-22T05:09:37.350Z,980.91
2022-11-22T05:10:37.299Z,980.87
2022-11-22T05:11:37.358Z,980.85
2022-11-22T05:12:37.260Z,980.81
2022-11-22T05:13:37.260Z,980.83
2022-11-22T05:14:37.281Z,980.82
2022-11-22T05:15:37.237Z,980.86
2022-11-22T05:16:37.266Z,980.88
2022-11-22T05:17:37.210Z,980.88
2022-11-22T05:18:37.206Z,980.87
2022-11-22T05:19:37.198Z,980.86
2022-11-22T05:20:37.221Z,980.86
2022-11-22T05:21:37.229Z,980.86
2022-11-22T05:22:37.179Z,980.86
2022-11-22T05:23:37.172Z,980.89
2022-11-22T05:24:37.142Z,980.92
2022-11-22T05:25:37.157Z,980.94
2022-11-22T05:26:37.154Z,980.95
2022-11-22T05:27:37.139Z,980.94
2022-11-22T05:28:37.131Z,980.95
2022-11-22T05:29:37.111Z,980.95
2022-11-22T05:30:37.082Z,980.96
2022-11-22T05:31:37.116Z,980.98
2022-11-22T05:32:37.073Z,980.99
2022-11-22T05:33:37.062Z,980.98
2022-11-22T05:34:37.048Z,980.98
2022-11-22T05:35:37.034Z,981.01
2022-11-22T05:36:37.045Z,981.02
2022-11-22T05:37:37.029Z,981.02
2022-11-22T05:38:37.003Z,981.02
2022-11-22T05:39:37.003Z,981.04
2022-11-22T05:40:36.989Z,981.07
2022-11-22T05:41:36.993Z,981.06
2022-11-22T05:42:36.957Z,981.05
2022-11-22T05:43:36.956Z,981.04
2022-11-22T05:44:36.956Z,981.04
2022-11-22T05:45:36.955Z,981.05
2022-11-22T05:46:36.990Z,981.08
2022-11-22T05:47:36.917Z,981.08
2022-11-22T05:48:36.902Z,981.08
2022-11-22T05:49:36.937Z,981.03
2022-11-22T05:50:36.892Z,981.05
2022-11-22T05:51:36.917Z,981.06
2022-11-22T05:52:36.910Z,981.06
2022-11-22T05:53:36.862Z,981.07
2022-11-22T05:54:36.840Z,981.10
2022-11-22T05:55:36.875Z,981.10
2022-11-22T05:56:36.826Z,981.11
2022-11-22T05:57:36.844Z,981.13
2022-11-22T05:58:36.802Z,981.14
2022-11-22T05:59:41.116Z,981.17
2022-11-22T06:00:36.792Z,981.19
2022-11-22T06:01:36.787Z,981.20
2022-11-22T06:02:36.895Z,981.23
2022-11-22T06:03:36.760Z,981.22
2022-11-22T06:04:36.741Z,981.23
2022-11-22T06:05:36.730Z,981.22
2022-11-22T06:06:36.727Z,981.26
2022-11-22T06:07:36.770Z,981.28
2022-11-22T06:08:36.721Z,981.30
2022-11-22T06:09:36.744Z,981.31
2022-11-22T06:10:36.681Z,981.33
2022-11-22T06:11:36.678Z,981.34
2022-11-22T06:12:36.684Z,981.34
2022-11-22T06:13:36.654Z,981.38
2022-11-22T06:14:44.455Z,981.37
2022-11-22T06:15:43.141Z,981.36
2022-11-22T06:16:43.121Z,981.35
2022-11-22T06:17:36.664Z,981.35
2022-11-22T06:18:36.605Z,981.37
2022-11-22T06:19:36.602Z,981.42
2022-11-22T06:20:36.585Z,981.45
2022-11-22T06:21:36.577Z,981.48
2022-11-22T06:22:36.593Z,981.48
2022-11-22T06:23:36.555Z,981.48
2022-11-22T06:24:36.553Z,981.53
2022-11-22T06:25:36.552Z,981.54
2022-11-22T06:26:39.491Z,981.57
2022-11-22T06:27:36.518Z,981.59
2022-11-22T06:28:36.524Z,981.59
2022-11-22T06:29:36.495Z,981.62
2022-11-22T06:30:36.517Z,981.64
2022-11-22T06:31:36.435Z,981.65
2022-11-22T06:32:36.418Z,981.63
2022-11-22T06:33:36.449Z,981.64
2022-11-22T06:34:36.399Z,981.65
2022-11-22T06:35:36.383Z,981.65
2022-11-22T06:36:36.368Z,981.66
2022-11-22T06:37:36.374Z,981.66
2022-11-22T06:38:44.277Z,981.69
2022-11-22T06:39:42.843Z,981.70
2022-11-22T06:40:42.840Z,981.71
2022-11-22T06:41:42.854Z,981.72
2022-11-22T06:42:36.308Z,981.71
2022-11-22T06:43:36.332Z,981.72
2022-11-22T06:44:36.312Z,981.72
2022-11-22T06:45:36.284Z,981.72
2022-11-22T06:46:36.274Z,981.74
2022-11-22T06:47:36.287Z,981.74
2022-11-22T06:48:36.268Z,981.74
2022-11-22T06:49:36.246Z,981.73
2022-11-22T06:50:36.226Z,981.70
2022-11-22T06:51:36.225Z,981.70
2022-11-22T06:52:36.214Z,981.70
2022-11-22T06:53:51.501Z,981.71
2022-11-22T06:54:36.201Z,981.73
2022-11-22T06:55:50.077Z,981.73
2022-11-22T06:56:36.175Z,981.74
2022-11-22T06:57:36.177Z,981.76
2022-11-22T06:58:36.176Z,981.79
2022-11-22T06:59:36.143Z,981.79
2022-11-22T07:00:36.198Z,981.79
2022-11-22T07:01:36.294Z,981.80
2022-11-22T07:02:36.116Z,981.82
2022-11-22T07:03:36.143Z,981.82
2022-11-22T07:04:36.093Z,981.81
2022-11-22T07:05:36.087Z,981.81
2022-11-22T07:06:36.078Z,981.83
2022-11-22T07:07:36.145Z,981.83
2022-11-22T07:08:36.086Z,981.86
2022-11-22T07:09:36.051Z,981.88
2022-11-22T07:10:36.030Z,981.89
2022-11-22T07:11:36.107Z,981.91
2022-11-22T07:12:36.016Z,981.91
2022-11-22T07:13:36.013Z,981.92
2022-11-22T07:14:36.013Z,981.93
2022-11-22T07:15:36.000Z,981.95
2022-11-22T07:16:36.037Z,981.96
2022-11-22T07:17:35.965Z,981.97
2022-11-22T07:18:35.953Z,981.96
2022-11-22T07:19:35.967Z,981.98
2022-11-22T07:20:35.930Z,982.00
2022-11-22T07:21:35.939Z,982.01
2022-11-22T07:22:35.911Z,982.03
2022-11-22T07:23:35.907Z,982.04
2022-11-22T07:24:35.908Z,982.03
2022-11-22T07:25:35.902Z,982.02
2022-11-22T07:26:35.879Z,27672.53
2022-11-22T07:27:35.866Z,27672.53
2022-11-22T07:28:35.848Z,27672.53
2022-11-22T07:29:35.872Z,27672.53
2022-11-22T07:30:39.784Z,27672.53
2022-11-22T07:31:35.911Z,27672.53
2022-11-22T07:32:35.819Z,27672.53
2022-11-22T07:33:35.806Z,27672.53
2022-11-22T07:34:35.807Z,27672.53
2022-11-22T07:35:35.788Z,27672.53
2022-11-22T07:36:35.773Z,27672.53
2022-11-22T07:37:35.762Z,27672.53
2022-11-22T07:38:35.743Z,27672.53
2022-11-22T07:39:35.759Z,27672.53
2022-11-22T07:40:35.739Z,27672.53
2022-11-22T07:41:35.729Z,27672.53
2022-11-22T07:42:35.711Z,27672.53
2022-11-22T07:43:35.701Z,27672.53
2022-11-22T07:44:35.718Z,27672.53
2022-11-22T07:45:35.691Z,27672.53
2022-11-22T07:46:35.684Z,27672.53
2022-11-22T07:47:35.660Z,27672.53
2022-11-22T07:48:35.644Z,27672.53
2022-11-22T07:49:35.674Z,27672.53
2022-11-22T07:50:35.627Z,27672.53
2022-11-22T07:51:35.720Z,27672.53
2022-11-22T07:52:35.608Z,27672.53
2022-11-22T07:53:35.603Z,27672.53
2022-11-22T07:54:35.621Z,27672.53
2022-11-22T07:55:35.603Z,27672.53
2022-11-22T07:56:35.568Z,27672.53
2022-11-22T07:57:35.581Z,27672.53
2022-11-22T07:58:35.554Z,27672.53
2022-11-22T07:59:35.565Z,27672.53
2022-11-22T08:00:35.528Z,27672.53
2022-11-22T08:01:35.631Z,27672.53
2022-11-22T08:02:35.509Z,27672.53
2022-11-22T08:03:35.527Z,27672.53
2022-11-22T08:04:35.548Z,27672.53
2022-11-22T08:05:35.516Z,27672.53
2022-11-22T08:06:35.468Z,27672.53
2022-11-22T08:07:35.588Z,27672.53
2022-11-22T08:08:35.465Z,27672.53
2022-11-22T08:09:35.476Z,27672.53
2022-11-22T08:10:35.431Z,27672.53
2022-11-22T08:11:35.429Z,27672.53
2022-11-22T08:12:35.407Z,27672.53
2022-11-22T08:13:35.410Z,27672.53
2022-11-22T08:14:35.412Z,27672.53
2022-11-22T08:15:35.383Z,27672.53
2022-11-22T08:16:35.371Z,27672.53
2022-11-22T08:17:35.364Z,27672.53
2022-11-22T08:18:35.351Z,27672.53
2022-11-22T08:19:35.366Z,27672.53
2022-11-22T08:20:35.329Z,27672.53
2022-11-22T08:21:35.330Z,27672.53
2022-11-22T08:22:35.315Z,27672.53
2022-11-22T08:23:35.335Z,27672.53
2022-11-22T08:24:35.353Z,27672.53
2022-11-22T08:25:35.280Z,27672.53
2022-11-22T08:26:35.275Z,27672.53
2022-11-22T08:27:35.263Z,27672.53
2022-11-22T08:28:35.247Z,27672.53
2022-11-22T08:29:42.844Z,27672.53
2022-11-22T08:30:41.770Z,27672.53
2022-11-22T08:31:41.750Z,27672.53
2022-11-22T08:32:41.715Z,27672.53
2022-11-22T08:33:42.712Z,27672.53
2022-11-22T08:34:46.934Z,27672.53
2022-11-22T08:36:45.984Z,982.10
2022-11-22T08:37:46.946Z,982.14
2022-11-22T08:38:46.955Z,982.17
2022-11-22T08:39:46.958Z,982.18
2022-11-22T08:40:46.981Z,982.19
2022-11-22T08:41:46.906Z,982.23
2022-11-22T08:42:46.906Z,982.25
2022-11-22T08:43:46.889Z,982.27
2022-11-22T08:44:46.881Z,982.28
2022-11-22T08:45:46.887Z,982.31
2022-11-22T08:46:46.877Z,982.33
2022-11-22T08:47:46.843Z,982.35
2022-11-22T08:48:46.855Z,982.33
2022-11-22T08:49:46.825Z,982.32
2022-11-22T08:50:46.857Z,982.36
2022-11-22T08:51:46.807Z,982.36
2022-11-22T08:52:46.799Z,982.40
2022-11-22T08:53:46.796Z,982.44
2022-11-22T08:54:46.794Z,982.47
2022-11-22T08:55:46.801Z,982.47
2022-11-22T08:56:46.776Z,982.49
2022-11-22T08:57:46.757Z,982.47
2022-11-22T08:58:46.811Z,982.45
2022-11-22T08:59:46.849Z,982.42
2022-11-22T09:00:46.809Z,982.41
2022-11-22T09:01:46.795Z,982.42
2022-11-22T09:02:46.715Z,982.38
2022-11-22T09:03:46.687Z,982.39
2022-11-22T09:04:46.684Z,982.38
2022-11-22T09:08:55.299Z,982.44
2022-11-22T09:10:57.451Z,982.46
2022-11-22T09:11:58.427Z,982.49
2022-11-22T09:12:58.385Z,982.51
2022-11-22T09:13:58.383Z,982.52
2022-11-22T09:14:58.364Z,982.52
2022-11-22T09:15:58.401Z,982.53
2022-11-22T09:16:58.347Z,982.53
2022-11-22T09:17:58.340Z,982.54
2022-11-22T09:18:58.349Z,982.54
2022-11-22T09:19:58.330Z,982.55
2022-11-22T09:20:58.336Z,982.54
2022-11-22T09:21:58.302Z,982.56
2022-11-22T09:22:58.295Z,982.59
2022-11-22T09:23:58.286Z,982.62
2022-11-22T09:24:58.275Z,982.64
2022-11-22T09:25:58.283Z,982.63
2022-11-22T09:26:58.247Z,982.63
2022-11-22T09:27:58.241Z,982.66
2022-11-22T09:28:58.234Z,982.64
2022-11-22T09:29:58.236Z,982.68
2022-11-22T09:30:58.242Z,982.66
2022-11-22T09:31:58.199Z,982.63
2022-11-22T09:32:58.192Z,982.70
2022-11-22T09:33:58.177Z,982.74
2022-11-22T09:34:58.171Z,982.76
2022-11-22T09:35:58.199Z,982.78
2022-11-22T09:36:58.169Z,982.81
2022-11-22T09:37:58.171Z,982.84
2022-11-22T09:38:58.138Z,982.80
2022-11-22T09:39:58.125Z,982.81
2022-11-22T09:40:58.168Z,982.82
2022-11-22T09:41:58.097Z,982.80
2022-11-22T09:42:58.091Z,982.81
2022-11-22T09:43:58.091Z,982.78
2022-11-22T09:44:58.074Z,982.78
2022-11-22T09:45:58.085Z,982.81
2022-11-22T09:46:58.094Z,982.79
2022-11-22T09:47:58.038Z,982.81
2022-11-22T09:48:58.044Z,982.83
2022-11-22T09:49:58.050Z,982.82
2022-11-22T09:50:58.026Z,982.80
2022-11-22T09:51:57.999Z,982.82
2022-11-22T09:52:57.992Z,982.78
2022-11-22T09:53:57.975Z,982.76
2022-11-22T09:54:58.085Z,982.76
2022-11-22T09:55:57.987Z,982.76
2022-11-22T09:56:57.975Z,982.78
2022-11-22T09:57:57.947Z,982.76
2022-11-22T09:58:57.929Z,982.74
2022-11-22T09:59:57.916Z,982.74
2022-11-22T10:00:57.983Z,982.76
2022-11-22T10:02:03.432Z,982.79
2022-11-22T10:03:01.162Z,982.75
2022-11-22T10:03:57.903Z,982.77
2022-11-22T10:04:57.887Z,982.79
2022-11-22T10:05:57.909Z,982.80
2022-11-22T10:06:57.911Z,982.84
2022-11-22T10:07:57.864Z,982.86
2022-11-22T10:08:57.849Z,982.86
2022-11-22T10:09:57.818Z,982.85
2022-11-22T10:10:57.818Z,982.86
2022-11-22T10:11:57.869Z,982.87
2022-11-22T10:12:57.821Z,982.87
2022-11-22T10:13:57.794Z,982.91
2022-11-22T10:14:57.767Z,982.89
2022-11-22T10:15:57.780Z,982.90
2022-11-22T10:16:57.736Z,982.92
2022-11-22T10:17:57.738Z,982.93
2022-11-22T10:18:57.737Z,982.94
2022-11-22T10:19:57.739Z,983.00
2022-11-22T10:20:57.692Z,982.99
2022-11-22T10:21:57.718Z,982.98
2022-11-22T10:22:57.697Z,982.97
2022-11-22T10:23:57.706Z,982.98
2022-11-22T10:24:57.713Z,982.99
2022-11-22T10:25:57.649Z,982.99
2022-11-22T10:26:57.709Z,982.98
2022-11-22T10:28:00.885Z,982.96
2022-11-22T10:28:57.612Z,982.96
2022-11-22T10:29:57.602Z,982.92
2022-11-22T10:30:57.588Z,982.87
2022-11-22T10:31:57.605Z,982.81
2022-11-22T10:32:57.641Z,982.81
2022-11-22T10:33:57.570Z,982.79
2022-11-22T10:34:57.557Z,982.78
2022-11-22T10:35:57.545Z,982.75
2022-11-22T10:36:57.548Z,982.74
2022-11-22T10:37:57.520Z,982.71
2022-11-22T10:38:57.536Z,982.71
2022-11-22T10:39:57.515Z,982.67
2022-11-22T10:40:57.491Z,982.65
2022-11-22T10:41:57.513Z,982.64
2022-11-22T10:42:57.471Z,982.64
2022-11-22T10:43:57.467Z,982.61
2022-11-22T10:44:57.450Z,982.62
2022-11-22T10:45:57.445Z,982.64
2022-11-22T10:46:57.510Z,982.62
2022-11-22T10:47:57.429Z,982.63
2022-11-22T10:48:57.523Z,982.61
2022-11-22T10:49:57.406Z,982.61
2022-11-22T10:50:57.397Z,982.60
2022-11-22T10:51:57.409Z,982.63
2022-11-22T10:52:57.376Z,982.59
2022-11-22T10:54:03.141Z,982.61
2022-11-22T10:56:08.140Z,982.56
2022-11-22T10:57:16.998Z,982.56
2022-11-22T10:58:09.110Z,982.56
2022-11-22T10:59:15.593Z,982.59
2022-11-22T11:00:09.082Z,982.54
2022-11-22T11:01:09.161Z,982.56
2022-11-22T11:02:09.092Z,982.58
2022-11-22T11:03:09.073Z,982.53
2022-11-22T11:04:09.051Z,982.57
2022-11-22T11:05:09.297Z,982.58
2022-11-22T11:07:35.086Z,982.59
2022-11-22T11:07:46.614Z,982.55
2022-11-22T11:09:12.330Z,982.49
2022-11-22T11:10:40.127Z,982.49
2022-11-22T11:15:31.285Z,982.47
2022-11-22T11:16:30.320Z,982.46
2022-11-22T11:17:30.361Z,982.43
2022-11-22T11:18:39.267Z,982.43
2022-11-22T11:19:36.745Z,982.39
2022-11-22T11:20:30.253Z,982.36
2022-11-22T11:21:30.244Z,982.32
2022-11-22T11:22:58.522Z,982.30
2022-11-22T11:23:30.240Z,982.30
2022-11-22T11:24:30.565Z,982.27
2022-11-22T11:25:30.243Z,982.24
2022-11-22T11:26:30.240Z,982.22
2022-11-22T11:27:30.204Z,982.19
2022-11-22T11:28:30.208Z,982.23
2022-11-22T11:29:33.296Z,982.25
2022-11-22T11:30:30.161Z,982.25
2022-11-22T11:31:30.300Z,982.23
2022-11-22T11:32:30.155Z,982.24
2022-11-22T11:33:30.121Z,982.25
2022-11-22T11:34:30.441Z,982.25
2022-11-22T11:35:30.106Z,982.25
2022-11-22T11:36:30.102Z,982.25
2022-11-22T11:37:30.108Z,982.21
2022-11-22T11:38:30.105Z,982.24
2022-11-22T11:39:30.285Z,982.26
2022-11-22T11:40:30.132Z,982.26
2022-11-22T11:41:30.034Z,982.27
2022-11-22T11:42:30.064Z,982.25
2022-11-22T11:43:30.022Z,982.22
2022-11-22T11:44:30.375Z,982.21
2022-11-22T11:45:30.016Z,982.21
2022-11-22T11:46:30.038Z,982.23
2022-11-22T11:47:30.011Z,982.23
2022-11-22T11:48:29.966Z,982.24
2022-11-22T11:49:30.350Z,982.22
2022-11-22T11:50:30.035Z,982.20
2022-11-22T11:51:29.935Z,982.18
2022-11-22T11:52:30.027Z,982.17
2022-11-22T11:53:29.912Z,982.16
2022-11-22T11:54:29.943Z,982.22
2022-11-22T11:55:29.924Z,982.21
2022-11-22T11:56:29.987Z,982.23
2022-11-22T11:57:29.900Z,982.24
2022-11-22T11:58:29.869Z,982.23
2022-11-22T11:59:30.252Z,982.23
2022-11-22T12:00:29.854Z,982.22
2022-11-22T12:01:33.229Z,982.26
2022-11-22T12:02:29.901Z,982.24
2022-11-22T12:03:30.111Z,982.27
2022-11-22T12:04:30.246Z,982.28
2022-11-22T12:05:29.793Z,982.26
2022-11-22T12:06:29.822Z,982.31
2022-11-22T12:07:30.162Z,982.31
2022-11-22T12:08:30.110Z,982.32
2022-11-22T12:09:30.512Z,982.34
2022-11-22T12:10:29.790Z,982.37
2022-11-22T12:11:30.375Z,982.36
2022-11-22T12:12:29.795Z,982.36
2022-11-22T12:13:29.870Z,982.40
2022-11-22T12:14:42.930Z,982.39
2022-11-22T12:15:29.749Z,982.43
2022-11-22T12:16:29.801Z,982.45
2022-11-22T12:17:30.148Z,982.46
2022-11-22T12:26:55.630Z,982.39
2022-11-22T12:27:55.586Z,982.43
2022-11-22T12:28:55.532Z,982.41
2022-11-22T12:29:55.550Z,982.37
2022-11-22T12:30:55.530Z,982.37
2022-11-22T12:31:55.512Z,982.34
2022-11-22T12:32:55.516Z,982.34